createdAt,value
2022-09-17T00:02:56.223Z,11.70
2022-09-17T00:06:10.110Z,13.43
2022-09-17T00:09:14.393Z,9.10
2022-09-17T00:12:18.340Z,8.15
2022-09-17T00:15:22.222Z,11.30
2022-09-17T00:18:25.797Z,14.50
2022-09-17T00:21:31.013Z,11.00
2022-09-17T00:24:34.368Z,9.07
2022-09-17T00:27:37.749Z,10.13
2022-09-17T00:30:46.370Z,9.82
2022-09-17T00:33:50.033Z,12.23
2022-09-17T00:36:55.074Z,9.50
2022-09-17T00:40:00.696Z,9.52
2022-09-17T00:43:05.547Z,11.88
2022-09-17T00:46:22.079Z,10.30
2022-09-17T00:49:31.003Z,10.57
2022-09-17T00:52:39.756Z,12.25
2022-09-17T00:55:47.282Z,9.38
2022-09-17T00:58:51.282Z,11.25
2022-09-17T01:01:54.770Z,11.48
2022-09-17T01:04:58.301Z,10.73
2022-09-17T01:08:16.992Z,11.05
2022-09-17T01:11:37.237Z,14.07
2022-09-17T01:14:54.160Z,11.20
2022-09-17T01:18:11.600Z,13.70
2022-09-17T01:21:49.526Z,12.35
2022-09-17T01:25:13.508Z,16.85
2022-09-17T01:28:34.024Z,15.82
2022-09-17T01:31:46.185Z,15.73
2022-09-17T01:34:57.842Z,15.82
2022-09-17T01:38:06.774Z,16.92
2022-09-17T01:41:17.274Z,14.20
2022-09-17T01:47:32.891Z,17.08
2022-09-17T01:50:42.142Z,10.35
2022-09-17T01:53:51.822Z,17.52
2022-09-17T01:57:00.599Z,15.40
2022-09-17T02:00:08.513Z,20.20
2022-09-17T02:03:28.110Z,15.75
2022-09-17T02:06:35.673Z,18.45
2022-09-17T02:09:44.323Z,19.52
2022-09-17T02:12:51.822Z,16.20
2022-09-17T02:16:02.313Z,15.15
2022-09-17T02:19:12.026Z,16.73
2022-09-17T02:22:24.121Z,13.80
2022-09-17T02:25:32.597Z,15.52
2022-09-17T02:28:43.706Z,19.13
2022-09-17T02:31:49.708Z,21.05
2022-09-17T02:34:54.586Z,19.13
2022-09-17T02:37:57.909Z,15.90
2022-09-17T02:41:07.801Z,16.35
2022-09-17T02:44:23.135Z,17.77
2022-09-17T02:47:52.209Z,15.80
2022-09-17T02:51:13.750Z,20.58
2022-09-17T02:54:25.799Z,19.52
2022-09-17T02:57:35.285Z,19.42
2022-09-17T03:00:38.901Z,14.10
2022-09-17T03:03:46.827Z,18.27
2022-09-17T03:06:54.065Z,20.52
2022-09-17T03:09:57.525Z,20.90
2022-09-17T03:13:00.939Z,24.27
2022-09-17T03:16:07.290Z,22.88
2022-09-17T03:19:10.697Z,27.33
2022-09-17T03:22:15.488Z,25.27
2022-09-17T03:25:18.896Z,27.50
2022-09-17T03:28:22.242Z,24.50
2022-09-17T03:31:25.521Z,29.30
2022-09-17T03:34:28.793Z,22.88
2022-09-17T03:37:33.721Z,26.23
2022-09-17T03:40:37.187Z,24.33
2022-09-17T03:43:43.593Z,27.58
2022-09-17T03:46:46.974Z,32.20
2022-09-17T03:49:50.250Z,35.28
2022-09-17T03:52:54.829Z,35.13
2022-09-17T03:55:59.995Z,30.05
2022-09-17T03:59:03.367Z,31.38
2022-09-17T04:02:07.516Z,33.75
2022-09-17T04:05:11.352Z,26.15
2022-09-17T04:08:16.026Z,27.27
2022-09-17T04:11:19.267Z,30.17
2022-09-17T04:14:22.527Z,32.25
2022-09-17T04:17:25.798Z,30.08
2022-09-17T04:20:29.669Z,28.48
2022-09-17T04:23:34.617Z,22.65
2022-09-17T04:26:37.842Z,23.85
2022-09-17T04:29:41.401Z,31.10
2022-09-17T04:32:45.635Z,28.80
2022-09-17T04:35:49.325Z,30.08
2022-09-17T04:38:54.080Z,27.50
2022-09-17T04:41:57.351Z,29.23
2022-09-17T04:45:00.691Z,28.83
2022-09-17T04:48:05.015Z,34.60
2022-09-17T04:51:08.165Z,28.27
2022-09-17T04:54:12.873Z,30.42
2022-09-17T04:57:16.052Z,27.17
2022-09-17T05:00:20.896Z,26.17
2022-09-17T05:03:24.111Z,25.25
2022-09-17T05:06:27.301Z,29.20
2022-09-17T05:09:32.083Z,32.42
2022-09-17T05:12:35.765Z,26.88
2022-09-17T05:15:39.009Z,29.13
2022-09-17T05:18:42.881Z,27.33
2022-09-17T05:21:46.148Z,27.92
2022-09-17T05:24:50.877Z,28.52
2022-09-17T05:27:54.793Z,27.98
2022-09-17T05:31:00.792Z,27.05
2022-09-17T05:34:04.680Z,29.73
2022-09-17T05:37:10.360Z,31.80
2022-09-17T05:40:15.054Z,27.30
2022-09-17T05:43:18.900Z,30.33
2022-09-17T05:46:22.288Z,27.42
2022-09-17T05:49:25.676Z,30.83
2022-09-17T05:52:29.508Z,28.35
2022-09-17T05:55:35.336Z,24.00
2022-09-17T05:58:38.689Z,20.65
2022-09-17T06:01:42.446Z,22.13
2022-09-17T06:04:46.980Z,18.80
2022-09-17T06:07:50.233Z,18.65
2022-09-17T06:10:58.942Z,22.75
2022-09-17T06:14:05.287Z,20.65
2022-09-17T06:17:08.569Z,19.38
2022-09-17T06:20:12.007Z,16.33
2022-09-17T06:23:16.132Z,11.27
2022-09-17T06:26:20.893Z,9.60
2022-09-17T06:29:24.520Z,7.95
2022-09-17T06:32:27.754Z,9.77
2022-09-17T06:35:31.190Z,8.60
2022-09-17T06:38:36.862Z,12.20
2022-09-17T06:41:43.645Z,9.48
2022-09-17T06:44:47.342Z,9.82
2022-09-17T06:47:51.107Z,11.30
2022-09-17T06:50:55.153Z,9.27
2022-09-17T06:53:58.660Z,8.13
2022-09-17T06:57:03.553Z,7.93
2022-09-17T07:00:07.730Z,9.10
2022-09-17T07:03:11.233Z,9.05
2022-09-17T07:06:14.430Z,6.47
2022-09-17T07:09:17.714Z,7.38
2022-09-17T07:12:23.457Z,7.68
2022-09-17T07:15:27.046Z,7.07
2022-09-17T07:18:30.952Z,12.23
2022-09-17T07:21:34.529Z,7.97
2022-09-17T07:24:37.902Z,7.15
2022-09-17T07:27:42.990Z,7.13
2022-09-17T07:30:46.203Z,5.15
2022-09-17T07:33:49.447Z,7.25
2022-09-17T07:36:54.217Z,6.72
2022-09-17T07:39:57.551Z,7.78
2022-09-17T07:43:02.491Z,6.90
2022-09-17T07:46:08.290Z,7.45
2022-09-17T07:49:12.286Z,6.53
2022-09-17T07:52:15.823Z,6.85
2022-09-17T07:55:19.477Z,6.43
2022-09-17T07:58:25.140Z,5.15
2022-09-17T08:01:28.476Z,4.50
2022-09-17T08:04:31.865Z,8.57
2022-09-17T08:07:35.312Z,4.72
2022-09-17T08:10:39.098Z,5.65
2022-09-17T08:13:44.616Z,5.47
2022-09-17T08:16:48.255Z,3.70
2022-09-17T08:19:51.674Z,8.13
2022-09-17T08:23:03.965Z,9.35
2022-09-17T08:26:09.629Z,8.90
2022-09-17T08:29:14.619Z,13.00
2022-09-17T08:32:17.870Z,6.40
2022-09-17T08:35:21.403Z,7.85
2022-09-17T08:38:25.164Z,5.88
2022-09-17T08:41:42.708Z,4.85
2022-09-17T08:44:51.837Z,7.10
2022-09-17T08:48:03.144Z,11.10
2022-09-17T08:51:18.124Z,3.72
2022-09-17T08:54:29.827Z,5.47
2022-09-17T08:57:43.419Z,8.90
2022-09-17T09:00:56.638Z,5.00
2022-09-17T09:04:18.665Z,6.53
2022-09-17T09:07:27.307Z,7.60
2022-09-17T09:10:38.582Z,4.07
2022-09-17T09:13:44.527Z,9.95
2022-09-17T09:16:50.875Z,7.95
2022-09-17T09:19:56.833Z,5.53
2022-09-17T09:23:08.117Z,5.78
2022-09-17T09:26:19.106Z,5.75
2022-09-17T09:29:36.499Z,4.10
2022-09-17T09:32:57.963Z,4.13
2022-09-17T09:36:02.075Z,6.25
2022-09-17T09:39:15.847Z,9.52
2022-09-17T09:42:28.995Z,9.63
2022-09-17T09:45:51.014Z,5.32
2022-09-17T09:49:07.220Z,4.85
2022-09-17T09:52:21.827Z,4.93
2022-09-17T09:55:42.465Z,5.75
2022-09-17T09:58:46.181Z,5.72
2022-09-17T10:01:50.226Z,7.60
2022-09-17T10:04:56.427Z,6.70
2022-09-17T10:08:00.666Z,9.00
2022-09-17T10:11:06.288Z,5.50
2022-09-17T10:14:24.380Z,15.20
2022-09-17T10:17:33.174Z,7.55
2022-09-17T10:20:51.557Z,6.78
2022-09-17T10:23:55.760Z,4.82
2022-09-17T10:27:04.934Z,5.43
2022-09-17T10:30:20.011Z,5.53
2022-09-17T10:33:27.247Z,9.93
2022-09-17T10:36:42.861Z,6.35
2022-09-17T10:39:49.122Z,6.53
2022-09-17T10:43:14.803Z,9.38
2022-09-17T10:46:26.638Z,11.32
2022-09-17T10:49:42.588Z,7.32
2022-09-17T10:52:51.999Z,41.38
2022-09-17T10:56:10.402Z,5.22
2022-09-17T10:59:30.244Z,8.80
2022-09-17T11:03:11.311Z,4.97
2022-09-17T11:06:37.644Z,18.95
2022-09-17T11:09:53.669Z,42.28
2022-09-17T11:13:15.858Z,18.73
2022-09-17T11:16:36.622Z,9.25
2022-09-17T11:19:47.376Z,2.22
2022-09-17T11:23:03.390Z,6.15
2022-09-17T11:26:16.306Z,9.32
2022-09-17T11:29:37.136Z,6.93
2022-09-17T11:33:13.580Z,5.55
2022-09-17T11:36:23.218Z,3.83
2022-09-17T11:39:34.523Z,7.60
2022-09-17T11:42:45.550Z,8.85
2022-09-17T11:45:59.406Z,4.43
2022-09-17T11:49:06.653Z,5.93
2022-09-17T11:52:16.064Z,4.50
2022-09-17T11:55:24.936Z,2.37
2022-09-17T11:58:39.753Z,5.18
2022-09-17T12:01:51.536Z,11.52
2022-09-17T12:05:03.132Z,5.03
2022-09-17T12:08:22.493Z,4.35
2022-09-17T12:11:34.642Z,4.45
2022-09-17T12:14:50.243Z,4.38
2022-09-17T12:18:30.485Z,6.65
2022-09-17T12:21:33.081Z,6.78
2022-09-17T12:24:36.501Z,6.13
2022-09-17T12:27:45.179Z,6.22
2022-09-17T12:30:57.341Z,6.82
2022-09-17T12:34:20.132Z,8.05
2022-09-17T12:37:33.993Z,8.63
2022-09-17T12:40:44.740Z,8.90
2022-09-17T12:44:05.553Z,6.10
2022-09-17T12:47:31.557Z,6.07
2022-09-17T12:50:49.054Z,6.80
2022-09-17T12:54:03.465Z,9.07
2022-09-17T12:57:17.948Z,6.55
2022-09-17T13:00:21.619Z,5.78
2022-09-17T13:03:30.504Z,9.07
2022-09-17T13:06:54.833Z,7.72
2022-09-17T13:10:21.228Z,10.55
2022-09-17T13:13:37.169Z,7.85
2022-09-17T13:16:46.494Z,5.88
2022-09-17T13:20:20.203Z,5.03
2022-09-17T13:23:39.481Z,23.38
2022-09-17T13:26:45.741Z,12.88
2022-09-17T13:30:02.709Z,11.80
2022-09-17T13:33:07.085Z,18.25
2022-09-17T13:36:45.153Z,19.42
2022-09-17T13:39:53.796Z,17.27
2022-09-17T13:42:59.439Z,14.45
2022-09-17T13:46:18.008Z,20.60
2022-09-17T13:49:21.465Z,24.50
2022-09-17T13:52:44.107Z,17.80
2022-09-17T13:55:51.637Z,21.17
2022-09-17T13:58:55.146Z,14.85
2022-09-17T14:02:04.573Z,15.57
2022-09-17T14:05:39.791Z,14.93
2022-09-17T14:08:56.455Z,21.50
2022-09-17T14:12:00.727Z,154.65
2022-09-17T14:15:05.325Z,18.75
2022-09-17T14:18:54.312Z,13.70
2022-09-17T14:22:04.323Z,14.00
2022-09-17T14:25:18.070Z,13.98
2022-09-17T14:28:32.313Z,13.95
2022-09-17T14:31:38.458Z,13.38
2022-09-17T14:34:42.663Z,13.07
2022-09-17T14:37:50.109Z,11.35
2022-09-17T14:41:02.488Z,11.85
2022-09-17T14:44:09.550Z,9.82
2022-09-17T14:47:18.904Z,12.88
2022-09-17T14:50:24.177Z,15.48
2022-09-17T14:53:27.421Z,14.25
2022-09-17T14:56:33.698Z,13.43
2022-09-17T14:59:49.602Z,13.20
2022-09-17T15:02:55.791Z,7.18
2022-09-17T15:05:59.355Z,7.47
2022-09-17T15:09:02.668Z,12.50
2022-09-17T15:12:08.913Z,6.28
2022-09-17T15:15:24.777Z,8.38
2022-09-17T15:18:39.433Z,13.25
2022-09-17T15:21:45.036Z,8.93
2022-09-17T15:24:54.149Z,6.57
2022-09-17T15:28:04.898Z,8.10
2022-09-17T15:31:17.409Z,5.95
2022-09-17T15:34:22.122Z,5.20
2022-09-17T15:37:28.637Z,4.80
2022-09-17T15:40:34.380Z,5.25
2022-09-17T15:43:41.354Z,5.05
2022-09-17T15:46:44.993Z,6.28
2022-09-17T15:50:14.049Z,7.03
2022-09-17T15:53:24.378Z,8.98
2022-09-17T15:59:36.180Z,8.48
2022-09-17T16:02:39.536Z,5.95
2022-09-17T16:05:50.853Z,5.43
2022-09-17T16:08:57.748Z,8.82
2022-09-17T16:12:01.129Z,6.68
2022-09-17T16:15:07.495Z,15.10
2022-09-17T16:18:15.196Z,13.93
2022-09-17T16:21:20.535Z,8.10
2022-09-17T16:24:23.958Z,8.93
2022-09-17T16:27:33.834Z,15.85
2022-09-17T16:30:38.775Z,13.05
2022-09-17T16:33:42.879Z,10.93
2022-09-17T16:36:46.151Z,10.32
2022-09-17T16:39:49.732Z,9.55
2022-09-17T16:42:53.116Z,11.38
2022-09-17T16:46:02.893Z,15.88
2022-09-17T16:49:06.205Z,16.15
2022-09-17T16:52:09.576Z,19.17
2022-09-17T16:55:15.238Z,24.80
2022-09-17T16:58:18.692Z,23.10
2022-09-17T17:01:23.845Z,21.42
2022-09-17T17:04:27.320Z,22.25
2022-09-17T17:07:32.153Z,33.42
2022-09-17T17:10:38.789Z,60.15
2022-09-17T17:13:43.838Z,72.32
2022-09-17T17:16:49.449Z,63.42
2022-09-17T17:19:53.111Z,69.22
2022-09-17T17:22:57.299Z,66.18
2022-09-17T17:26:02.086Z,55.80
2022-09-17T17:29:05.688Z,62.17
2022-09-17T17:32:11.070Z,59.72
2022-09-17T17:35:14.983Z,72.47
2022-09-17T17:38:20.381Z,66.75
2022-09-17T17:41:26.331Z,61.50
2022-09-17T17:44:30.232Z,57.75
2022-09-17T17:47:42.827Z,58.50
2022-09-17T17:50:46.788Z,55.88
2022-09-17T17:53:51.168Z,60.33
2022-09-17T17:56:54.687Z,74.18
2022-09-17T18:00:00.583Z,72.30
2022-09-17T18:03:08.783Z,88.13
2022-09-17T18:06:13.161Z,78.70
2022-09-17T18:09:17.031Z,71.28
2022-09-17T18:12:23.809Z,67.90
2022-09-17T18:15:32.016Z,60.55
2022-09-17T18:18:44.177Z,55.58
2022-09-17T18:21:48.643Z,56.60
2022-09-17T18:24:55.662Z,53.42
2022-09-17T18:27:59.300Z,50.20
2022-09-17T18:31:07.259Z,58.13
2022-09-17T18:34:17.753Z,50.53
2022-09-17T18:37:21.696Z,41.25
2022-09-17T18:40:26.583Z,41.60
2022-09-17T18:43:30.993Z,47.05
2022-09-17T18:46:35.050Z,40.92
2022-09-17T18:49:40.200Z,35.67
2022-09-17T18:52:44.248Z,44.90
2022-09-17T18:55:49.472Z,39.05
2022-09-17T18:58:55.248Z,43.42
2022-09-17T19:02:01.417Z,44.67
2022-09-17T19:05:06.996Z,43.30
2022-09-17T19:08:16.098Z,47.40
2022-09-17T19:11:23.343Z,47.28
2022-09-17T19:14:28.409Z,44.35
2022-09-17T19:17:32.007Z,45.03
2022-09-17T19:20:38.679Z,44.78
2022-09-17T19:23:42.868Z,48.85
2022-09-17T19:26:50.783Z,54.15
2022-09-17T19:29:55.244Z,52.38
2022-09-17T19:32:59.108Z,73.10
2022-09-17T19:36:06.970Z,83.32
2022-09-17T19:39:13.802Z,97.32
2022-09-17T19:42:17.584Z,115.75
2022-09-17T19:45:22.001Z,120.55
2022-09-17T19:48:25.534Z,115.10
2022-09-17T19:51:31.955Z,105.53
2022-09-17T19:54:36.193Z,95.72
2022-09-17T19:57:41.631Z,71.85
2022-09-17T20:00:45.774Z,82.20
2022-09-17T20:03:49.451Z,74.28
2022-09-17T20:06:54.597Z,76.90
2022-09-17T20:09:59.458Z,84.30
2022-09-17T20:13:02.771Z,85.72
2022-09-17T20:16:09.315Z,82.65
2022-09-17T20:19:16.202Z,85.55
2022-09-17T20:22:21.149Z,80.32
2022-09-17T20:25:25.807Z,80.30
2022-09-17T20:28:29.268Z,79.07
2022-09-17T20:31:36.739Z,72.68
2022-09-17T20:34:41.157Z,75.80
2022-09-17T20:41:13.137Z,87.43
2022-09-17T20:44:18.847Z,86.43
2022-09-17T20:47:24.401Z,79.35
2022-09-17T20:50:28.429Z,82.90
2022-09-17T20:53:37.926Z,83.57
2022-09-17T20:56:42.451Z,79.77
2022-09-17T20:59:53.093Z,74.45
2022-09-17T21:02:57.747Z,78.75
2022-09-17T21:06:01.222Z,72.05
2022-09-17T21:09:07.517Z,73.32
2022-09-17T21:12:11.925Z,78.97
2022-09-17T21:15:15.203Z,75.40
2022-09-17T21:18:18.936Z,70.03
2022-09-17T21:21:22.543Z,70.68
2022-09-17T21:24:46.615Z,64.93
2022-09-17T21:27:50.367Z,63.70
2022-09-17T21:30:54.351Z,66.13
2022-09-17T21:33:59.077Z,67.32
2022-09-17T21:37:04.902Z,61.05
2022-09-17T21:40:11.722Z,63.10
2022-09-17T21:43:15.112Z,61.85
2022-09-17T21:46:20.600Z,58.88
2022-09-17T21:49:24.183Z,59.95
2022-09-17T21:52:29.590Z,66.50
2022-09-17T21:55:35.345Z,59.28
2022-09-17T21:58:40.989Z,63.47
2022-09-17T22:01:46.967Z,60.70
2022-09-17T22:04:51.830Z,63.72
2022-09-17T22:07:55.191Z,63.38
2022-09-17T22:11:07.450Z,64.32
2022-09-17T22:14:13.238Z,56.08
2022-09-17T22:17:17.277Z,60.15
2022-09-17T22:20:34.938Z,57.17
2022-09-17T22:23:38.266Z,61.72
2022-09-17T22:26:44.989Z,59.55
2022-09-17T22:29:48.299Z,62.78
2022-09-17T22:32:51.669Z,62.75
2022-09-17T22:35:54.841Z,63.45
2022-09-17T22:39:00.035Z,58.58
2022-09-17T22:42:05.456Z,61.90
2022-09-17T22:45:09.521Z,58.00
2022-09-17T22:48:13.860Z,62.47
2022-09-17T22:51:20.262Z,69.68
2022-09-17T22:54:24.700Z,61.60
2022-09-17T22:57:29.398Z,60.42
2022-09-17T23:00:33.063Z,64.03
2022-09-17T23:03:36.393Z,56.53
2022-09-17T23:06:41.995Z,52.30
2022-09-17T23:09:45.512Z,52.00
2022-09-17T23:12:53.786Z,54.38
2022-09-17T23:16:02.393Z,51.67
2022-09-17T23:19:06.120Z,54.33
2022-09-17T23:22:09.577Z,50.75
2022-09-17T23:25:12.909Z,49.08
2022-09-17T23:28:17.557Z,51.97
2022-09-17T23:31:23.208Z,46.80
2022-09-17T23:34:26.400Z,51.65
2022-09-17T23:37:30.024Z,51.28
2022-09-17T23:40:33.661Z,49.70
2022-09-17T23:43:38.396Z,45.45
2022-09-17T23:46:41.743Z,47.63
2022-09-17T23:49:45.280Z,46.83
2022-09-17T23:52:48.548Z,49.53
2022-09-17T23:55:52.429Z,50.63
2022-09-17T23:59:00.258Z,44.38
